sensor_id;sensor_type;location;lat;lon;timestamp;pressure;altitude;pressure_sealevel;temperature;humidity
76260;BME280;65076;52.362;6.588;2023-11-19T00:06:11;100758.59;;;12.91;100.00
76260;BME280;65076;52.362;6.588;2023-11-19T00:14:07;100742.88;;;13.41;99.58
76260;BME280;65076;52.362;6.588;2023-11-19T00:26:50;100726.13;;;13.19;100.00
76260;BME280;65076;52.362;6.588;2023-11-19T00:29:25;100722.88;;;13.28;99.72
76260;BME280;65076;52.362;6.588;2023-11-19T00:36:58;100731.63;;;13.62;98.60
76260;BME280;65076;52.362;6.588;2023-11-19T00:39:32;100723.53;;;13.32;99.88
76260;BME280;65076;52.362;6.588;2023-11-19T00:44:34;100718.09;;;13.32;99.53
76260;BME280;65076;52.362;6.588;2023-11-19T00:49:33;100711.53;;;13.50;99.52
76260;BME280;65076;52.362;6.588;2023-11-19T00:54:34;100691.16;;;13.43;99.15
76260;BME280;65076;52.362;6.588;2023-11-19T00:59:44;100698.34;;;13.86;97.60
76260;BME280;65076;52.362;6.588;2023-11-19T01:04:47;100681.41;;;13.95;95.36
76260;BME280;65076;52.362;6.588;2023-11-19T01:07:19;100680.88;;;13.76;97.51
76260;BME280;65076;52.362;6.588;2023-11-19T01:12:27;100649.59;;;13.69;97.33
76260;BME280;65076;52.362;6.588;2023-11-19T01:22:55;100644.06;;;13.71;96.51
76260;BME280;65076;52.362;6.588;2023-11-19T01:25:32;100644.53;;;13.77;97.95
76260;BME280;65076;52.362;6.588;2023-11-19T01:30:32;100683.94;;;13.84;96.12
76260;BME280;65076;52.362;6.588;2023-11-19T01:46:25;100665.09;;;13.95;96.58
76260;BME280;65076;52.362;6.588;2023-11-19T01:53:55;100662.56;;;14.07;96.38
76260;BME280;65076;52.362;6.588;2023-11-19T01:59:01;100657.13;;;13.92;96.08
76260;BME280;65076;52.362;6.588;2023-11-19T02:04:12;100626.97;;;13.54;97.01
76260;BME280;65076;52.362;6.588;2023-11-19T02:11:47;100640.72;;;13.94;96.24
76260;BME280;65076;52.362;6.588;2023-11-19T02:16:48;100616.63;;;13.88;95.87
76260;BME280;65076;52.362;6.588;2023-11-19T02:19:24;100630.03;;;13.91;95.01
76260;BME280;65076;52.362;6.588;2023-11-19T02:27:02;100613.03;;;13.87;95.43
76260;BME280;65076;52.362;6.588;2023-11-19T02:34:49;100634.69;;;13.89;94.76
76260;BME280;65076;52.362;6.588;2023-11-19T02:39:50;100621.22;;;13.73;94.91
76260;BME280;65076;52.362;6.588;2023-11-19T02:42:26;100627.06;;;13.67;94.53
76260;BME280;65076;52.362;6.588;2023-11-19T02:50:05;100633.63;;;13.77;94.35
76260;BME280;65076;52.362;6.588;2023-11-19T02:55:14;100640.78;;;13.66;94.66
76260;BME280;65076;52.362;6.588;2023-11-19T03:15:47;100587.34;;;13.50;94.65
76260;BME280;65076;52.362;6.588;2023-11-19T03:23:45;100619.41;;;13.31;94.78
76260;BME280;65076;52.362;6.588;2023-11-19T03:31:21;100628.13;;;13.22;94.52
76260;BME280;65076;52.362;6.588;2023-11-19T03:36:22;100624.38;;;13.09;95.06
76260;BME280;65076;52.362;6.588;2023-11-19T03:52:38;100643.94;;;13.15;93.65
76260;BME280;65076;52.362;6.588;2023-11-19T03:57:48;100635.78;;;13.15;92.55
76260;BME280;65076;52.362;6.588;2023-11-19T04:02:48;100633.06;;;13.15;91.84
76260;BME280;65076;52.362;6.588;2023-11-19T04:05:21;100617.41;;;13.05;91.75
76260;BME280;65076;52.362;6.588;2023-11-19T04:10:38;100614.59;;;13.06;91.58
76260;BME280;65076;52.362;6.588;2023-11-19T04:15:41;100609.47;;;13.02;91.65
76260;BME280;65076;52.362;6.588;2023-11-19T04:23:14;100607.09;;;12.82;90.96
76260;BME280;65076;52.362;6.588;2023-11-19T04:25:51;100612.03;;;12.89;90.91
76260;BME280;65076;52.362;6.588;2023-11-19T04:33:25;100601.84;;;12.93;90.36
76260;BME280;65076;52.362;6.588;2023-11-19T04:38:26;100622.22;;;12.71;89.62
76260;BME280;65076;52.362;6.588;2023-11-19T04:43:35;100633.72;;;12.61;90.03
76260;BME280;65076;52.362;6.588;2023-11-19T04:48:35;100640.22;;;12.72;90.06
76260;BME280;65076;52.362;6.588;2023-11-19T04:51:08;100635.72;;;12.57;90.45
76260;BME280;65076;52.362;6.588;2023-11-19T04:58:51;100670.13;;;12.57;91.03
76260;BME280;65076;52.362;6.588;2023-11-19T05:03:50;100637.16;;;12.49;91.50
76260;BME280;65076;52.362;6.588;2023-11-19T05:08:54;100624.72;;;12.45;90.84
76260;BME280;65076;52.362;6.588;2023-11-19T05:14:02;100638.03;;;12.49;91.61
76260;BME280;65076;52.362;6.588;2023-11-19T05:19:06;100643.53;;;12.48;90.80
76260;BME280;65076;52.362;6.588;2023-11-19T05:21:38;100641.28;;;12.40;90.65
76260;BME280;65076;52.362;6.588;2023-11-19T05:29:18;100637.31;;;12.46;89.90
76260;BME280;65076;52.362;6.588;2023-11-19T05:34:21;100637.19;;;12.63;90.14
76260;BME280;65076;52.362;6.588;2023-11-19T05:36:54;100649.81;;;12.64;89.08
76260;BME280;65076;52.362;6.588;2023-11-19T05:47:02;100657.19;;;12.46;90.05
76260;BME280;65076;52.362;6.588;2023-11-19T05:52:09;100650.38;;;12.39;89.01
76260;BME280;65076;52.362;6.588;2023-11-19T06:00:38;100666.06;;;12.34;89.02
76260;BME280;65076;52.362;6.588;2023-11-19T06:08:09;100668.31;;;12.42;88.24
76260;BME280;65076;52.362;6.588;2023-11-19T06:13:16;100673.56;;;12.45;88.13
76260;BME280;65076;52.362;6.588;2023-11-19T06:18:15;100673.59;;;12.29;88.51
76260;BME280;65076;52.362;6.588;2023-11-19T06:20:47;100663.00;;;12.40;87.59
76260;BME280;65076;52.362;6.588;2023-11-19T06:28:26;100654.41;;;12.32;87.92
76260;BME280;65076;52.362;6.588;2023-11-19T06:33:30;100678.00;;;12.46;87.87
76260;BME280;65076;52.362;6.588;2023-11-19T06:38:30;100653.72;;;12.28;87.44
76260;BME280;65076;52.362;6.588;2023-11-19T06:41:07;100669.09;;;12.44;86.54
76260;BME280;65076;52.362;6.588;2023-11-19T06:48:46;100667.19;;;12.30;86.68
76260;BME280;65076;52.362;6.588;2023-11-19T06:53:46;100676.59;;;12.24;86.86
76260;BME280;65076;52.362;6.588;2023-11-19T06:56:20;100669.75;;;12.17;86.50
76260;BME280;65076;52.362;6.588;2023-11-19T07:01:23;100670.09;;;12.27;86.44
76260;BME280;65076;52.362;6.588;2023-11-19T07:06:30;100678.50;;;12.07;86.92
76260;BME280;65076;52.362;6.588;2023-11-19T07:13:58;100685.56;;;12.09;87.62
76260;BME280;65076;52.362;6.588;2023-11-19T07:16:30;100680.13;;;12.09;88.04
76260;BME280;65076;52.362;6.588;2023-11-19T07:24:11;100680.88;;;12.13;86.51
76260;BME280;65076;52.362;6.588;2023-11-19T07:34:10;100697.22;;;12.27;85.87
76260;BME280;65076;52.362;6.588;2023-11-19T07:41:58;100718.38;;;12.20;86.45
76260;BME280;65076;52.362;6.588;2023-11-19T07:47:03;100731.25;;;12.01;86.91
76260;BME280;65076;52.362;6.588;2023-11-19T07:52:07;100720.59;;;12.14;85.91
76260;BME280;65076;52.362;6.588;2023-11-19T07:57:15;100726.09;;;12.28;86.44
76260;BME280;65076;52.362;6.588;2023-11-19T08:02:16;100726.38;;;12.23;86.00
76260;BME280;65076;52.362;6.588;2023-11-19T08:04:49;100739.81;;;12.25;86.93
76260;BME280;65076;52.362;6.588;2023-11-19T08:07:23;100715.16;;;12.29;85.76
76260;BME280;65076;52.362;6.588;2023-11-19T08:17:27;100744.13;;;12.45;85.09
76260;BME280;65076;52.362;6.588;2023-11-19T08:24:55;100747.34;;;12.51;84.92
76260;BME280;65076;52.362;6.588;2023-11-19T08:27:28;100744.13;;;12.60;84.49
76260;BME280;65076;52.362;6.588;2023-11-19T08:32:36;100742.28;;;12.61;83.58
76260;BME280;65076;52.362;6.588;2023-11-19T08:40:12;100735.59;;;12.82;84.21
76260;BME280;65076;52.362;6.588;2023-11-19T08:45:13;100733.72;;;12.83;83.29
76260;BME280;65076;52.362;6.588;2023-11-19T08:50:20;100725.81;;;12.94;82.63
76260;BME280;65076;52.362;6.588;2023-11-19T08:55:18;100721.75;;;12.87;81.55
76260;BME280;65076;52.362;6.588;2023-11-19T09:00:19;100728.84;;;13.19;80.56
76260;BME280;65076;52.362;6.588;2023-11-19T09:02:54;100725.75;;;13.25;80.21
76260;BME280;65076;52.362;6.588;2023-11-19T09:12:56;100708.47;;;13.12;80.16
76260;BME280;65076;52.362;6.588;2023-11-19T09:15:28;100719.03;;;13.17;80.22
76260;BME280;65076;52.362;6.588;2023-11-19T09:18:00;100744.38;;;13.01;80.62
76260;BME280;65076;52.362;6.588;2023-11-19T09:23:05;100729.34;;;13.26;79.96
76260;BME280;65076;52.362;6.588;2023-11-19T09:30:45;100729.63;;;13.21;79.82
76260;BME280;65076;52.362;6.588;2023-11-19T09:35:49;100735.78;;;13.39;79.17
76260;BME280;65076;52.362;6.588;2023-11-19T09:38:23;100741.41;;;13.36;79.98
76260;BME280;65076;52.362;6.588;2023-11-19T09:43:24;100745.38;;;13.30;80.41
76260;BME280;65076;52.362;6.588;2023-11-19T09:53:31;100733.53;;;13.45;79.40
76260;BME280;65076;52.362;6.588;2023-11-19T10:01:17;100730.34;;;13.39;78.62
76260;BME280;65076;52.362;6.588;2023-11-19T10:09:08;100731.31;;;13.38;78.99
76260;BME280;65076;52.362;6.588;2023-11-19T10:19:18;100715.59;;;13.71;77.04
76260;BME280;65076;52.362;6.588;2023-11-19T10:21:55;100728.63;;;13.94;77.07
76260;BME280;65076;52.362;6.588;2023-11-19T10:24:34;100706.88;;;13.66;76.97
76260;BME280;65076;52.362;6.588;2023-11-19T10:29:32;100722.50;;;14.05;76.76
76260;BME280;65076;52.362;6.588;2023-11-19T10:37:08;100707.84;;;13.93;76.12
76260;BME280;65076;52.362;6.588;2023-11-19T10:42:18;100693.06;;;14.12;75.17
76260;BME280;65076;52.362;6.588;2023-11-19T10:47:19;100705.03;;;13.95;75.81
76260;BME280;65076;52.362;6.588;2023-11-19T10:52:21;100692.69;;;13.89;75.97
76260;BME280;65076;52.362;6.588;2023-11-19T10:57:26;100709.97;;;14.17;75.59
76260;BME280;65076;52.362;6.588;2023-11-19T11:02:35;100698.22;;;14.02;75.11
76260;BME280;65076;52.362;6.588;2023-11-19T11:10:19;100706.00;;;13.94;75.33
76260;BME280;65076;52.362;6.588;2023-11-19T11:17:57;100705.69;;;14.13;75.32
76260;BME280;65076;52.362;6.588;2023-11-19T11:20:34;100700.84;;;13.89;76.48
76260;BME280;65076;52.362;6.588;2023-11-19T11:25:46;100704.72;;;13.71;76.72
76260;BME280;65076;52.362;6.588;2023-11-19T11:31:06;100690.44;;;14.10;75.29
76260;BME280;65076;52.362;6.588;2023-11-19T11:36:21;100697.56;;;13.84;76.03
76260;BME280;65076;52.362;6.588;2023-11-19T11:38:57;100701.13;;;13.99;76.92
76260;BME280;65076;52.362;6.588;2023-11-19T11:44:03;100692.91;;;13.86;75.61
76260;BME280;65076;52.362;6.588;2023-11-19T11:49:06;100686.13;;;14.20;75.15
76260;BME280;65076;52.362;6.588;2023-11-19T11:54:10;100696.38;;;13.88;74.89
76260;BME280;65076;52.362;6.588;2023-11-19T11:59:23;100682.41;;;13.80;75.71
76260;BME280;65076;52.362;6.588;2023-11-19T12:04:51;100678.78;;;13.94;74.37
76260;BME280;65076;52.362;6.588;2023-11-19T12:12:31;100679.22;;;13.60;76.03
76260;BME280;65076;52.362;6.588;2023-11-19T12:17:47;100669.88;;;13.64;76.81
76260;BME280;65076;52.362;6.588;2023-11-19T12:25:49;100670.56;;;12.65;86.34
76260;BME280;65076;52.362;6.588;2023-11-19T12:33:30;100664.16;;;13.10;86.46
76260;BME280;65076;52.362;6.588;2023-11-19T12:41:13;100661.53;;;13.08;85.98
76260;BME280;65076;52.362;6.588;2023-11-19T12:48:51;100669.09;;;13.03;85.72
76260;BME280;65076;52.362;6.588;2023-11-19T12:53:51;100680.13;;;13.16;83.05
76260;BME280;65076;52.362;6.588;2023-11-19T12:56:26;100657.28;;;13.34;81.76
76260;BME280;65076;52.362;6.588;2023-11-19T13:04:15;100675.63;;;13.45;81.47
76260;BME280;65076;52.362;6.588;2023-11-19T13:09:28;100667.56;;;13.29;80.89
76260;BME280;65076;52.362;6.588;2023-11-19T13:14:38;100670.56;;;13.39;81.64
76260;BME280;65076;52.362;6.588;2023-11-19T13:19:47;100676.88;;;13.39;81.97
76260;BME280;65076;52.362;6.588;2023-11-19T13:24:52;100666.34;;;13.19;82.89
76260;BME280;65076;52.362;6.588;2023-11-19T13:27:26;100660.28;;;13.44;83.84
76260;BME280;65076;52.362;6.588;2023-11-19T13:29:58;100667.38;;;13.02;83.83
76260;BME280;65076;52.362;6.588;2023-11-19T13:40:04;100663.44;;;12.62;88.51
76260;BME280;65076;52.362;6.588;2023-11-19T13:45:08;100666.47;;;13.18;86.24
76260;BME280;65076;52.362;6.588;2023-11-19T13:50:23;100670.16;;;13.17;86.91
76260;BME280;65076;52.362;6.588;2023-11-19T13:58:05;100672.06;;;13.14;86.31
76260;BME280;65076;52.362;6.588;2023-11-19T14:03:06;100635.00;;;12.84;88.08
76260;BME280;65076;52.362;6.588;2023-11-19T14:05:40;100653.38;;;12.94;87.62
76260;BME280;65076;52.362;6.588;2023-11-19T14:13:16;100666.94;;;12.94;87.91
76260;BME280;65076;52.362;6.588;2023-11-19T14:18:17;100653.84;;;12.87;89.58
76260;BME280;65076;52.362;6.588;2023-11-19T14:20:50;100654.94;;;12.98;88.21
76260;BME280;65076;52.362;6.588;2023-11-19T14:28:29;100665.19;;;12.93;86.93
76260;BME280;65076;52.362;6.588;2023-11-19T14:33:29;100648.50;;;12.85;85.00
76260;BME280;65076;52.362;6.588;2023-11-19T14:36:07;100655.88;;;12.83;85.11
76260;BME280;65076;52.362;6.588;2023-11-19T14:41:15;100661.59;;;12.93;85.71
76260;BME280;65076;52.362;6.588;2023-11-19T14:46:19;100656.28;;;13.35;84.42
76260;BME280;65076;52.362;6.588;2023-11-19T14:53:54;100669.59;;;12.66;88.99
76260;BME280;65076;52.362;6.588;2023-11-19T14:59:03;100664.19;;;12.50;91.33
76260;BME280;65076;52.362;6.588;2023-11-19T15:04:11;100657.31;;;12.29;92.15
76260;BME280;65076;52.362;6.588;2023-11-19T15:06:46;100654.13;;;12.37;91.32
76260;BME280;65076;52.362;6.588;2023-11-19T15:11:55;100659.34;;;12.71;91.21
76260;BME280;65076;52.362;6.588;2023-11-19T15:19:45;100659.81;;;12.48;90.54
76260;BME280;65076;52.362;6.588;2023-11-19T15:24:55;100672.72;;;12.74;90.21
76260;BME280;65076;52.362;6.588;2023-11-19T15:29:59;100666.13;;;12.78;89.72
76260;BME280;65076;52.362;6.588;2023-11-19T15:41:01;100668.16;;;12.74;89.57
76260;BME280;65076;52.362;6.588;2023-11-19T15:46:06;100664.00;;;12.53;90.33
76260;BME280;65076;52.362;6.588;2023-11-19T15:51:06;100668.13;;;12.60;90.13
76260;BME280;65076;52.362;6.588;2023-11-19T15:56:17;100668.34;;;12.71;90.00
76260;BME280;65076;52.362;6.588;2023-11-19T15:58:48;100657.31;;;12.74;88.53
76260;BME280;65076;52.362;6.588;2023-11-19T16:01:21;100650.19;;;12.72;88.65
76260;BME280;65076;52.362;6.588;2023-11-19T16:04:09;100659.44;;;12.84;88.39
76260;BME280;65076;52.362;6.588;2023-11-19T16:09:15;100656.78;;;12.68;88.34
76260;BME280;65076;52.362;6.588;2023-11-19T16:11:51;100640.94;;;12.76;88.14
76260;BME280;65076;52.362;6.588;2023-11-19T16:16:56;100657.53;;;12.56;88.80
76260;BME280;65076;52.362;6.588;2023-11-19T16:22:00;100642.78;;;12.76;87.49
76260;BME280;65076;52.362;6.588;2023-11-19T16:27:06;100647.66;;;12.99;86.07
76260;BME280;65076;52.362;6.588;2023-11-19T16:32:11;100664.16;;;13.10;85.61
76260;BME280;65076;52.362;6.588;2023-11-19T16:37:19;100656.88;;;12.96;84.29
76260;BME280;65076;52.362;6.588;2023-11-19T16:42:20;100646.84;;;12.83;84.70
76260;BME280;65076;52.362;6.588;2023-11-19T16:44:58;100661.59;;;12.93;84.55
76260;BME280;65076;52.362;6.588;2023-11-19T16:52:35;100656.28;;;12.91;83.85
76260;BME280;65076;52.362;6.588;2023-11-19T16:57:35;100647.91;;;12.80;83.48
76260;BME280;65076;52.362;6.588;2023-11-19T17:00:08;100649.25;;;12.73;84.66
76260;BME280;65076;52.362;6.588;2023-11-19T17:07:46;100658.94;;;12.77;84.48
76260;BME280;65076;52.362;6.588;2023-11-19T17:12:50;100659.06;;;12.76;84.16
76260;BME280;65076;52.362;6.588;2023-11-19T17:17:51;100656.94;;;12.81;84.62
76260;BME280;65076;52.362;6.588;2023-11-19T17:28:18;100650.66;;;12.94;83.51
76260;BME280;65076;52.362;6.588;2023-11-19T17:35:57;100657.31;;;12.74;85.17
76260;BME280;65076;52.362;6.588;2023-11-19T17:43:34;100647.75;;;12.67;85.80
76260;BME280;65076;52.362;6.588;2023-11-19T17:48:38;100650.06;;;12.89;85.00
76260;BME280;65076;52.362;6.588;2023-11-19T17:56:09;100641.00;;;12.45;86.43
76260;BME280;65076;52.362;6.588;2023-11-19T18:01:17;100638.66;;;12.68;86.68
76260;BME280;65076;52.362;6.588;2023-11-19T18:06:17;100635.81;;;12.56;87.41
76260;BME280;65076;52.362;6.588;2023-11-19T18:11:19;100647.13;;;12.78;87.26
76260;BME280;65076;52.362;6.588;2023-11-19T18:18:59;100631.16;;;12.58;88.16
76260;BME280;65076;52.362;6.588;2023-11-19T18:21:32;100624.31;;;12.66;88.92
76260;BME280;65076;52.362;6.588;2023-11-19T18:29:14;100615.78;;;12.43;91.10
76260;BME280;65076;52.362;6.588;2023-11-19T18:36:50;100620.63;;;12.38;92.84
76260;BME280;65076;52.362;6.588;2023-11-19T18:41:52;100618.75;;;12.24;94.44
76260;BME280;65076;52.362;6.588;2023-11-19T18:44:24;100614.00;;;12.27;94.24
76260;BME280;65076;52.362;6.588;2023-11-19T18:51:58;100582.13;;;12.31;94.64
76260;BME280;65076;52.362;6.588;2023-11-19T18:57:00;100619.66;;;12.39;94.72
76260;BME280;65076;52.362;6.588;2023-11-19T18:59:33;100599.91;;;12.21;95.18
76260;BME280;65076;52.362;6.588;2023-11-19T19:07:14;100606.69;;;12.14;95.52
76260;BME280;65076;52.362;6.588;2023-11-19T19:14:49;100570.44;;;12.15;96.26
76260;BME280;65076;52.362;6.588;2023-11-19T19:22:27;100588.66;;;11.97;97.88
76260;BME280;65076;52.362;6.588;2023-11-19T19:27:29;100586.28;;;12.07;99.34
76260;BME280;65076;52.362;6.588;2023-11-19T19:32:35;100574.09;;;12.29;98.18
76260;BME280;65076;52.362;6.588;2023-11-19T19:37:49;100570.09;;;12.05;97.75
76260;BME280;65076;52.362;6.588;2023-11-19T19:45:19;100572.69;;;12.22;97.54
76260;BME280;65076;52.362;6.588;2023-11-19T19:55:49;100566.19;;;12.25;99.83
76260;BME280;65076;52.362;6.588;2023-11-19T20:03:25;100555.78;;;12.03;100.00
76260;BME280;65076;52.362;6.588;2023-11-19T20:08:26;100561.56;;;11.97;99.98
76260;BME280;65076;52.362;6.588;2023-11-19T20:13:28;100561.06;;;12.20;100.00
76260;BME280;65076;52.362;6.588;2023-11-19T20:18:30;100554.66;;;12.21;99.44
76260;BME280;65076;52.362;6.588;2023-11-19T20:21:05;100559.13;;;11.93;100.00
76260;BME280;65076;52.362;6.588;2023-11-19T20:23:38;100543.72;;;11.93;100.00
76260;BME280;65076;52.362;6.588;2023-11-19T20:31:20;100555.38;;;12.09;100.00
76260;BME280;65076;52.362;6.588;2023-11-19T20:36:19;100535.41;;;11.96;100.00
76260;BME280;65076;52.362;6.588;2023-11-19T20:41:18;100547.00;;;12.14;100.00
76260;BME280;65076;52.362;6.588;2023-11-19T20:48:53;100564.56;;;12.22;100.00
76260;BME280;65076;52.362;6.588;2023-11-19T20:56:25;100529.63;;;12.02;100.00
76260;BME280;65076;52.362;6.588;2023-11-19T20:58:58;100534.28;;;12.14;100.00
76260;BME280;65076;52.362;6.588;2023-11-19T21:06:44;100569.91;;;12.24;100.00
76260;BME280;65076;52.362;6.588;2023-11-19T21:14:16;100560.63;;;12.28;100.00
76260;BME280;65076;52.362;6.588;2023-11-19T21:19:17;100567.91;;;12.42;100.00
76260;BME280;65076;52.362;6.588;2023-11-19T21:21:52;100560.19;;;12.20;100.00
76260;BME280;65076;52.362;6.588;2023-11-19T21:29:26;100560.38;;;12.17;100.00
76260;BME280;65076;52.362;6.588;2023-11-19T21:34:26;100564.41;;;12.10;100.00
76260;BME280;65076;52.362;6.588;2023-11-19T21:37:06;100563.75;;;12.20;100.00
76260;BME280;65076;52.362;6.588;2023-11-19T21:47:10;100563.28;;;12.14;100.00
76260;BME280;65076;52.362;6.588;2023-11-19T21:52:13;100557.47;;;12.20;100.00
76260;BME280;65076;52.362;6.588;2023-11-19T21:59:45;100553.72;;;12.22;100.00
76260;BME280;65076;52.362;6.588;2023-11-19T22:09:46;100565.56;;;12.36;100.00
76260;BME280;65076;52.362;6.588;2023-11-19T22:14:46;100550.72;;;12.27;100.00
76260;BME280;65076;52.362;6.588;2023-11-19T22:17:18;100555.78;;;12.33;100.00
76260;BME280;65076;52.362;6.588;2023-11-19T22:24:53;100573.22;;;12.29;100.00
76260;BME280;65076;52.362;6.588;2023-11-19T22:27:27;100575.66;;;12.34;100.00
76260;BME280;65076;52.362;6.588;2023-11-19T22:35:00;100581.03;;;12.49;100.00
76260;BME280;65076;52.362;6.588;2023-11-19T22:42:33;100581.53;;;12.56;100.00
76260;BME280;65076;52.362;6.588;2023-11-19T22:47:34;100568.13;;;12.39;100.00
76260;BME280;65076;52.362;6.588;2023-11-19T22:50:07;100580.28;;;12.61;100.00
76260;BME280;65076;52.362;6.588;2023-11-19T22:57:47;100586.31;;;12.37;100.00
76260;BME280;65076;52.362;6.588;2023-11-19T23:00:19;100577.13;;;12.39;100.00
76260;BME280;65076;52.362;6.588;2023-11-19T23:02:57;100590.22;;;12.47;100.00
76260;BME280;65076;52.362;6.588;2023-11-19T23:07:58;100594.56;;;12.35;100.00
76260;BME280;65076;52.362;6.588;2023-11-19T23:10:36;100594.09;;;12.43;100.00
76260;BME280;65076;52.362;6.588;2023-11-19T23:15:38;100594.09;;;12.43;100.00
76260;BME280;65076;52.362;6.588;2023-11-19T23:20:39;100603.31;;;12.40;100.00
76260;BME280;65076;52.362;6.588;2023-11-19T23:23:26;100593.13;;;12.44;100.00
76260;BME280;65076;52.362;6.588;2023-11-19T23:28:29;100604.06;;;12.42;100.00
76260;BME280;65076;52.362;6.588;2023-11-19T23:33:32;100607.97;;;12.52;100.00
76260;BME280;65076;52.362;6.588;2023-11-19T23:36:06;100610.91;;;12.34;100.00
76260;BME280;65076;52.362;6.588;2023-11-19T23:38:39;100609.03;;;12.50;100.00
76260;BME280;65076;52.362;6.588;2023-11-19T23:46:17;100606.41;;;12.18;100.00
76260;BME280;65076;52.362;6.588;2023-11-19T23:56:32;100610.91;;;12.34;100.00
